Alden, Michigan
Current Conditions -  °F | °C
As of 11:38 PM on Tuesday 21 Oct 2014 (Local Time) from KACB Reporting Station
Clear Clear  
Wind Chill: 31°   Ceiling: Unl
Heat Index: 31°   Visibility: 10mi
Dew Point: 29°   Wind: 0mph
Humidity: 94%   Direction: NA
Pressure: 30.31"   Gusts: NA
Location:  44.88°N, 85.28°W
Report Text: KACB 220338Z AUTO 00000KT 10SM CLR M01/M01 A3031 RMK AO2 T10061014
Loading
Personal Weather Stations






























Interactive Weather Map
Tropical Storm Tracking
New forecast layout! Learn more

10-Day Weather Forecast

Advertisements
Track Severe Weather on mobile